Aviation Digital Data Service (ADDS)

Output produced by TAFs form (0110 UTC 27 April 2017)
found at http://www.aviationweather.gov/adds/tafs/
 
KAPA 270053Z 02016G28KT 10SM -RA SCT043 BKN075 BKN120 09/M02 A2971 RMK AO2 PK WND 01028/0050 RAB32 SLP060 P0000 T00941022
KAPA 270104Z 2701/2724 04011G20KT P6SM -SHRA SCT040 BKN080 BKN120 
     FM270145 07011KT P6SM SCT090 BKN120 
     FM270300 17007KT P6SM SCT080 BKN120 
     FM271000 32010KT P6SM BKN060 OVC090 
     TEMPO 2713/2717 -SHRA BKN050 OVC070 
     FM271700 02009KT P6SM SCT070 BKN130 
     FM272000 32012G21KT P6SM VCSH SCT070 BKN090